sensor_id;sensor_type;location;lat;lon;timestamp;temperature;humidity
2967;DHT22;1493;51.496;7.210;2023-06-10T00:00:22;21.70;99.90
2967;DHT22;1493;51.496;7.210;2023-06-10T00:02:49;21.70;99.90
2967;DHT22;1493;51.496;7.210;2023-06-10T00:05:15;21.70;99.90
2967;DHT22;1493;51.496;7.210;2023-06-10T00:07:46;21.70;99.90
2967;DHT22;1493;51.496;7.210;2023-06-10T00:10:15;21.60;99.90
2967;DHT22;1493;51.496;7.210;2023-06-10T00:12:43;21.50;99.90
2967;DHT22;1493;51.496;7.210;2023-06-10T00:15:10;21.50;99.90
2967;DHT22;1493;51.496;7.210;2023-06-10T00:17:37;21.50;1.00
2967;DHT22;1493;51.496;7.210;2023-06-10T00:20:06;21.40;99.90
2967;DHT22;1493;51.496;7.210;2023-06-10T00:22:34;21.40;1.00
2967;DHT22;1493;51.496;7.210;2023-06-10T00:25:01;21.30;1.00
2967;DHT22;1493;51.496;7.210;2023-06-10T00:27:29;21.30;1.00
2967;DHT22;1493;51.496;7.210;2023-06-10T00:30:02;21.20;1.00
2967;DHT22;1493;51.496;7.210;2023-06-10T00:32:29;21.20;1.00
2967;DHT22;1493;51.496;7.210;2023-06-10T00:34:56;21.20;1.00
2967;DHT22;1493;51.496;7.210;2023-06-10T00:37:23;21.10;1.00
2967;DHT22;1493;51.496;7.210;2023-06-10T00:39:50;21.10;1.00
2967;DHT22;1493;51.496;7.210;2023-06-10T00:42:17;21.10;1.00
2967;DHT22;1493;51.496;7.210;2023-06-10T00:44:44;21.10;1.00
2967;DHT22;1493;51.496;7.210;2023-06-10T00:47:12;21.10;1.00
2967;DHT22;1493;51.496;7.210;2023-06-10T00:49:40;21.10;1.00
2967;DHT22;1493;51.496;7.210;2023-06-10T00:52:07;21.10;1.00
2967;DHT22;1493;51.496;7.210;2023-06-10T00:54:36;21.00;1.00
2967;DHT22;1493;51.496;7.210;2023-06-10T00:57:04;21.00;1.00
2967;DHT22;1493;51.496;7.210;2023-06-10T00:59:32;21.00;1.00
2967;DHT22;1493;51.496;7.210;2023-06-10T01:01:59;21.00;1.00
2967;DHT22;1493;51.496;7.210;2023-06-10T01:04:27;20.90;1.00
2967;DHT22;1493;51.496;7.210;2023-06-10T01:07:00;20.90;1.00
2967;DHT22;1493;51.496;7.210;2023-06-10T01:09:40;20.90;1.00
2967;DHT22;1493;51.496;7.210;2023-06-10T01:12:13;20.90;1.00
2967;DHT22;1493;51.496;7.210;2023-06-10T01:14:43;20.90;1.00
2967;DHT22;1493;51.496;7.210;2023-06-10T01:17:11;20.80;1.00
2967;DHT22;1493;51.496;7.210;2023-06-10T01:19:39;20.80;1.00
2967;DHT22;1493;51.496;7.210;2023-06-10T01:22:10;20.80;1.00
2967;DHT22;1493;51.496;7.210;2023-06-10T01:24:41;20.80;1.00
2967;DHT22;1493;51.496;7.210;2023-06-10T01:27:12;20.80;1.00
2967;DHT22;1493;51.496;7.210;2023-06-10T01:29:43;20.80;1.00
2967;DHT22;1493;51.496;7.210;2023-06-10T01:32:15;20.80;1.00
2967;DHT22;1493;51.496;7.210;2023-06-10T01:34:44;20.70;1.00
2967;DHT22;1493;51.496;7.210;2023-06-10T01:37:15;20.70;1.00
2967;DHT22;1493;51.496;7.210;2023-06-10T01:39:43;20.60;1.00
2967;DHT22;1493;51.496;7.210;2023-06-10T01:42:10;20.60;1.00
2967;DHT22;1493;51.496;7.210;2023-06-10T01:44:39;20.60;1.00
2967;DHT22;1493;51.496;7.210;2023-06-10T01:47:07;20.60;1.00
2967;DHT22;1493;51.496;7.210;2023-06-10T01:49:34;20.50;1.00
2967;DHT22;1493;51.496;7.210;2023-06-10T01:52:01;20.50;1.00
2967;DHT22;1493;51.496;7.210;2023-06-10T01:54:29;20.50;1.00
2967;DHT22;1493;51.496;7.210;2023-06-10T01:56:56;20.50;1.00
2967;DHT22;1493;51.496;7.210;2023-06-10T01:59:23;20.40;1.00
2967;DHT22;1493;51.496;7.210;2023-06-10T02:01:50;20.40;1.00
2967;DHT22;1493;51.496;7.210;2023-06-10T02:04:17;20.40;1.00
2967;DHT22;1493;51.496;7.210;2023-06-10T02:06:44;20.30;1.00
2967;DHT22;1493;51.496;7.210;2023-06-10T02:09:11;20.30;1.00
2967;DHT22;1493;51.496;7.210;2023-06-10T02:11:39;20.30;1.00
2967;DHT22;1493;51.496;7.210;2023-06-10T02:14:06;20.30;1.00
2967;DHT22;1493;51.496;7.210;2023-06-10T02:16:32;20.30;1.00
2967;DHT22;1493;51.496;7.210;2023-06-10T02:18:59;20.20;1.00
2967;DHT22;1493;51.496;7.210;2023-06-10T02:21:26;20.20;1.00
2967;DHT22;1493;51.496;7.210;2023-06-10T02:23:53;20.10;1.00
2967;DHT22;1493;51.496;7.210;2023-06-10T02:26:19;20.10;7.40
2967;DHT22;1493;51.496;7.210;2023-06-10T02:28:48;20.10;58.80
2967;DHT22;1493;51.496;7.210;2023-06-10T02:31:14;20.10;99.90
2967;DHT22;1493;51.496;7.210;2023-06-10T02:33:43;20.00;82.40
2967;DHT22;1493;51.496;7.210;2023-06-10T02:36:10;19.90;99.90
2967;DHT22;1493;51.496;7.210;2023-06-10T02:38:38;19.90;99.90
2967;DHT22;1493;51.496;7.210;2023-06-10T02:41:05;19.90;99.90
2967;DHT22;1493;51.496;7.210;2023-06-10T02:43:32;19.90;99.90
2967;DHT22;1493;51.496;7.210;2023-06-10T02:46:00;19.90;99.90
2967;DHT22;1493;51.496;7.210;2023-06-10T02:48:27;19.90;99.90
2967;DHT22;1493;51.496;7.210;2023-06-10T02:50:54;19.80;99.90
2967;DHT22;1493;51.496;7.210;2023-06-10T02:53:21;19.80;99.90
2967;DHT22;1493;51.496;7.210;2023-06-10T02:55:48;19.80;99.90
2967;DHT22;1493;51.496;7.210;2023-06-10T02:58:15;19.80;99.90
2967;DHT22;1493;51.496;7.210;2023-06-10T03:00:42;19.70;99.90
2967;DHT22;1493;51.496;7.210;2023-06-10T03:03:10;19.70;99.90
2967;DHT22;1493;51.496;7.210;2023-06-10T03:05:38;19.60;99.90
2967;DHT22;1493;51.496;7.210;2023-06-10T03:08:05;19.60;99.90
2967;DHT22;1493;51.496;7.210;2023-06-10T03:10:32;19.60;99.90
2967;DHT22;1493;51.496;7.210;2023-06-10T03:12:59;19.60;99.90
2967;DHT22;1493;51.496;7.210;2023-06-10T03:15:26;19.60;99.90
2967;DHT22;1493;51.496;7.210;2023-06-10T03:17:54;19.50;99.90
2967;DHT22;1493;51.496;7.210;2023-06-10T03:20:24;19.50;99.90
2967;DHT22;1493;51.496;7.210;2023-06-10T03:22:51;19.50;99.90
2967;DHT22;1493;51.496;7.210;2023-06-10T03:25:18;19.50;99.90
2967;DHT22;1493;51.496;7.210;2023-06-10T03:27:46;19.50;99.90
2967;DHT22;1493;51.496;7.210;2023-06-10T03:30:13;19.50;99.90
2967;DHT22;1493;51.496;7.210;2023-06-10T03:32:40;19.50;1.00
2967;DHT22;1493;51.496;7.210;2023-06-10T03:35:08;19.40;1.00
2967;DHT22;1493;51.496;7.210;2023-06-10T03:37:36;19.40;1.00
2967;DHT22;1493;51.496;7.210;2023-06-10T03:40:04;19.40;1.00
2967;DHT22;1493;51.496;7.210;2023-06-10T03:42:31;19.40;1.00
2967;DHT22;1493;51.496;7.210;2023-06-10T03:44:58;19.40;1.00
2967;DHT22;1493;51.496;7.210;2023-06-10T03:47:24;19.40;1.00
2967;DHT22;1493;51.496;7.210;2023-06-10T03:49:51;19.30;1.00
2967;DHT22;1493;51.496;7.210;2023-06-10T03:52:19;19.40;1.00
2967;DHT22;1493;51.496;7.210;2023-06-10T03:54:50;19.40;1.00
2967;DHT22;1493;51.496;7.210;2023-06-10T03:57:16;19.40;1.00
2967;DHT22;1493;51.496;7.210;2023-06-10T03:59:43;19.30;1.00
2967;DHT22;1493;51.496;7.210;2023-06-10T04:02:10;19.30;1.00
2967;DHT22;1493;51.496;7.210;2023-06-10T04:04:37;19.30;1.00
2967;DHT22;1493;51.496;7.210;2023-06-10T04:07:04;19.30;1.00
2967;DHT22;1493;51.496;7.210;2023-06-10T04:09:31;19.30;1.00
2967;DHT22;1493;51.496;7.210;2023-06-10T04:12:00;19.30;99.90
2967;DHT22;1493;51.496;7.210;2023-06-10T04:14:27;19.30;99.90
2967;DHT22;1493;51.496;7.210;2023-06-10T04:16:54;19.40;99.90
2967;DHT22;1493;51.496;7.210;2023-06-10T04:19:21;19.30;99.90
2967;DHT22;1493;51.496;7.210;2023-06-10T04:21:48;19.40;99.90
2967;DHT22;1493;51.496;7.210;2023-06-10T04:24:14;19.30;99.90
2967;DHT22;1493;51.496;7.210;2023-06-10T04:26:41;19.30;99.90
2967;DHT22;1493;51.496;7.210;2023-06-10T04:29:09;19.30;99.90
2967;DHT22;1493;51.496;7.210;2023-06-10T04:31:36;19.30;99.90
2967;DHT22;1493;51.496;7.210;2023-06-10T04:34:03;19.30;99.90
2967;DHT22;1493;51.496;7.210;2023-06-10T04:36:30;19.20;99.90
2967;DHT22;1493;51.496;7.210;2023-06-10T04:38:56;19.30;99.90
2967;DHT22;1493;51.496;7.210;2023-06-10T04:41:23;19.40;99.90
2967;DHT22;1493;51.496;7.210;2023-06-10T04:43:51;19.40;99.90
2967;DHT22;1493;51.496;7.210;2023-06-10T04:46:20;19.40;99.90
2967;DHT22;1493;51.496;7.210;2023-06-10T04:48:47;19.40;99.90
2967;DHT22;1493;51.496;7.210;2023-06-10T04:51:14;19.50;99.90
2967;DHT22;1493;51.496;7.210;2023-06-10T04:53:40;19.50;54.70
2967;DHT22;1493;51.496;7.210;2023-06-10T04:56:07;19.50;58.20
2967;DHT22;1493;51.496;7.210;2023-06-10T04:58:34;19.50;65.10
2967;DHT22;1493;51.496;7.210;2023-06-10T05:01:01;19.60;34.00
2967;DHT22;1493;51.496;7.210;2023-06-10T05:03:29;19.60;52.90
2967;DHT22;1493;51.496;7.210;2023-06-10T05:05:56;19.70;41.30
2967;DHT22;1493;51.496;7.210;2023-06-10T05:08:23;19.70;47.10
2967;DHT22;1493;51.496;7.210;2023-06-10T05:10:50;19.80;45.60
2967;DHT22;1493;51.496;7.210;2023-06-10T05:13:17;19.80;59.00
2967;DHT22;1493;51.496;7.210;2023-06-10T05:15:44;19.80;38.90
2967;DHT22;1493;51.496;7.210;2023-06-10T05:18:12;19.80;43.80
2967;DHT22;1493;51.496;7.210;2023-06-10T05:20:40;19.80;33.50
2967;DHT22;1493;51.496;7.210;2023-06-10T05:23:07;19.90;3.30
2967;DHT22;1493;51.496;7.210;2023-06-10T05:25:34;19.90;1.00
2967;DHT22;1493;51.496;7.210;2023-06-10T05:28:01;19.90;1.00
2967;DHT22;1493;51.496;7.210;2023-06-10T05:30:28;20.00;1.00
2967;DHT22;1493;51.496;7.210;2023-06-10T05:32:55;20.00;1.00
2967;DHT22;1493;51.496;7.210;2023-06-10T05:35:23;20.10;1.00
2967;DHT22;1493;51.496;7.210;2023-06-10T05:37:57;20.10;1.00
2967;DHT22;1493;51.496;7.210;2023-06-10T05:41:00;20.10;1.00
2967;DHT22;1493;51.496;7.210;2023-06-10T05:43:27;20.20;1.00
2967;DHT22;1493;51.496;7.210;2023-06-10T05:46:01;20.20;1.00
2967;DHT22;1493;51.496;7.210;2023-06-10T05:52:04;20.30;1.00
2967;DHT22;1493;51.496;7.210;2023-06-10T05:54:33;20.30;1.00
2967;DHT22;1493;51.496;7.210;2023-06-10T05:56:59;20.30;1.00
2967;DHT22;1493;51.496;7.210;2023-06-10T05:59:26;20.40;1.00
2967;DHT22;1493;51.496;7.210;2023-06-10T06:01:54;20.40;1.00
2967;DHT22;1493;51.496;7.210;2023-06-10T06:04:21;20.40;1.00
2967;DHT22;1493;51.496;7.210;2023-06-10T06:06:48;20.50;1.00
2967;DHT22;1493;51.496;7.210;2023-06-10T06:09:15;20.60;1.00
2967;DHT22;1493;51.496;7.210;2023-06-10T06:11:43;20.70;1.00
2967;DHT22;1493;51.496;7.210;2023-06-10T06:14:10;20.70;1.00
2967;DHT22;1493;51.496;7.210;2023-06-10T06:16:37;20.80;1.00
2967;DHT22;1493;51.496;7.210;2023-06-10T06:19:04;20.80;1.00
2967;DHT22;1493;51.496;7.210;2023-06-10T06:21:31;20.90;1.00
2967;DHT22;1493;51.496;7.210;2023-06-10T06:23:59;20.90;1.00
2967;DHT22;1493;51.496;7.210;2023-06-10T06:26:26;21.00;1.00
2967;DHT22;1493;51.496;7.210;2023-06-10T06:28:54;21.10;1.00
2967;DHT22;1493;51.496;7.210;2023-06-10T06:31:20;21.10;1.00
2967;DHT22;1493;51.496;7.210;2023-06-10T06:33:47;21.20;1.00
2967;DHT22;1493;51.496;7.210;2023-06-10T06:36:14;21.20;1.00
2967;DHT22;1493;51.496;7.210;2023-06-10T06:38:41;21.30;1.00
2967;DHT22;1493;51.496;7.210;2023-06-10T06:41:08;21.40;1.00
2967;DHT22;1493;51.496;7.210;2023-06-10T06:43:34;21.40;1.00
2967;DHT22;1493;51.496;7.210;2023-06-10T06:46:03;21.50;1.00
2967;DHT22;1493;51.496;7.210;2023-06-10T06:48:29;21.60;1.00
2967;DHT22;1493;51.496;7.210;2023-06-10T06:50:56;21.70;1.00
2967;DHT22;1493;51.496;7.210;2023-06-10T06:53:24;21.80;1.00
2967;DHT22;1493;51.496;7.210;2023-06-10T06:55:51;21.80;1.00
2967;DHT22;1493;51.496;7.210;2023-06-10T06:58:17;21.90;1.00
2967;DHT22;1493;51.496;7.210;2023-06-10T07:00:44;22.00;1.00
2967;DHT22;1493;51.496;7.210;2023-06-10T07:03:12;22.10;1.00
2967;DHT22;1493;51.496;7.210;2023-06-10T07:05:39;22.10;1.00
2967;DHT22;1493;51.496;7.210;2023-06-10T07:08:06;22.20;1.00
2967;DHT22;1493;51.496;7.210;2023-06-10T07:10:33;22.20;1.00
2967;DHT22;1493;51.496;7.210;2023-06-10T07:13:00;22.30;1.00
2967;DHT22;1493;51.496;7.210;2023-06-10T07:15:26;22.50;1.00
2967;DHT22;1493;51.496;7.210;2023-06-10T07:17:53;22.50;1.00
2967;DHT22;1493;51.496;7.210;2023-06-10T07:20:22;22.60;1.00
2967;DHT22;1493;51.496;7.210;2023-06-10T07:22:49;22.70;1.00
2967;DHT22;1493;51.496;7.210;2023-06-10T07:25:16;22.80;1.00
2967;DHT22;1493;51.496;7.210;2023-06-10T07:27:42;22.90;1.00
2967;DHT22;1493;51.496;7.210;2023-06-10T07:30:10;23.00;1.00
2967;DHT22;1493;51.496;7.210;2023-06-10T07:32:37;23.00;1.00
2967;DHT22;1493;51.496;7.210;2023-06-10T07:35:07;23.10;1.00
2967;DHT22;1493;51.496;7.210;2023-06-10T07:37:36;23.20;1.00
2967;DHT22;1493;51.496;7.210;2023-06-10T07:40:03;23.30;1.00
2967;DHT22;1493;51.496;7.210;2023-06-10T07:42:31;23.30;1.00
2967;DHT22;1493;51.496;7.210;2023-06-10T07:44:58;23.40;1.00
2967;DHT22;1493;51.496;7.210;2023-06-10T07:47:25;23.50;1.00
2967;DHT22;1493;51.496;7.210;2023-06-10T07:49:52;23.60;1.00
2967;DHT22;1493;51.496;7.210;2023-06-10T07:52:19;23.70;1.00
2967;DHT22;1493;51.496;7.210;2023-06-10T07:54:47;23.80;1.00
2967;DHT22;1493;51.496;7.210;2023-06-10T07:57:14;23.90;1.00
2967;DHT22;1493;51.496;7.210;2023-06-10T07:59:41;24.00;1.00
2967;DHT22;1493;51.496;7.210;2023-06-10T08:02:09;24.10;99.90
2967;DHT22;1493;51.496;7.210;2023-06-10T08:04:36;24.10;99.90
2967;DHT22;1493;51.496;7.210;2023-06-10T08:07:03;24.20;99.90
2967;DHT22;1493;51.496;7.210;2023-06-10T08:09:30;24.30;99.90
2967;DHT22;1493;51.496;7.210;2023-06-10T08:11:58;24.40;99.90
2967;DHT22;1493;51.496;7.210;2023-06-10T08:14:25;24.50;99.90
2967;DHT22;1493;51.496;7.210;2023-06-10T08:16:52;24.70;99.90
2967;DHT22;1493;51.496;7.210;2023-06-10T08:19:19;24.80;99.90
2967;DHT22;1493;51.496;7.210;2023-06-10T08:21:45;25.00;99.90
2967;DHT22;1493;51.496;7.210;2023-06-10T08:24:12;25.20;99.90
2967;DHT22;1493;51.496;7.210;2023-06-10T08:26:41;25.30;99.90
2967;DHT22;1493;51.496;7.210;2023-06-10T08:29:12;25.40;99.90
2967;DHT22;1493;51.496;7.210;2023-06-10T08:31:41;25.60;99.90
2967;DHT22;1493;51.496;7.210;2023-06-10T08:34:08;25.70;99.90
2967;DHT22;1493;51.496;7.210;2023-06-10T08:36:35;25.80;99.90
2967;DHT22;1493;51.496;7.210;2023-06-10T08:39:02;26.00;99.90
2967;DHT22;1493;51.496;7.210;2023-06-10T08:41:32;26.10;99.90
2967;DHT22;1493;51.496;7.210;2023-06-10T08:44:06;26.20;99.90
2967;DHT22;1493;51.496;7.210;2023-06-10T08:46:36;26.40;99.90
2967;DHT22;1493;51.496;7.210;2023-06-10T08:49:06;26.60;99.90
2967;DHT22;1493;51.496;7.210;2023-06-10T08:51:35;26.70;99.90
2967;DHT22;1493;51.496;7.210;2023-06-10T08:54:04;27.20;99.90
2967;DHT22;1493;51.496;7.210;2023-06-10T08:56:36;27.70;99.90
2967;DHT22;1493;51.496;7.210;2023-06-10T08:59:05;28.10;99.90
2967;DHT22;1493;51.496;7.210;2023-06-10T09:01:32;28.30;99.90
2967;DHT22;1493;51.496;7.210;2023-06-10T09:04:01;28.40;99.90
2967;DHT22;1493;51.496;7.210;2023-06-10T09:06:28;28.50;99.90
2967;DHT22;1493;51.496;7.210;2023-06-10T09:08:57;28.50;99.90
2967;DHT22;1493;51.496;7.210;2023-06-10T09:11:24;28.50;99.90
2967;DHT22;1493;51.496;7.210;2023-06-10T09:13:52;28.60;99.90
2967;DHT22;1493;51.496;7.210;2023-06-10T09:16:19;28.50;99.90
2967;DHT22;1493;51.496;7.210;2023-06-10T09:18:46;28.60;99.90
2967;DHT22;1493;51.496;7.210;2023-06-10T09:21:14;28.50;99.90
2967;DHT22;1493;51.496;7.210;2023-06-10T09:23:41;28.60;99.90
2967;DHT22;1493;51.496;7.210;2023-06-10T09:26:09;28.60;99.90
2967;DHT22;1493;51.496;7.210;2023-06-10T09:28:37;28.80;99.90
2967;DHT22;1493;51.496;7.210;2023-06-10T09:31:05;28.90;99.90
2967;DHT22;1493;51.496;7.210;2023-06-10T09:33:33;29.00;99.90
2967;DHT22;1493;51.496;7.210;2023-06-10T09:36:03;29.10;99.90
2967;DHT22;1493;51.496;7.210;2023-06-10T09:38:33;29.30;99.90
2967;DHT22;1493;51.496;7.210;2023-06-10T09:41:00;29.50;99.90
2967;DHT22;1493;51.496;7.210;2023-06-10T09:43:42;29.50;99.90
2967;DHT22;1493;51.496;7.210;2023-06-10T09:46:15;29.70;99.90
2967;DHT22;1493;51.496;7.210;2023-06-10T09:48:43;29.80;99.90
2967;DHT22;1493;51.496;7.210;2023-06-10T09:51:11;30.00;99.90
2967;DHT22;1493;51.496;7.210;2023-06-10T09:53:39;30.10;99.90
2967;DHT22;1493;51.496;7.210;2023-06-10T09:56:08;30.20;99.90
2967;DHT22;1493;51.496;7.210;2023-06-10T09:58:36;30.30;99.90
2967;DHT22;1493;51.496;7.210;2023-06-10T10:01:07;30.30;99.90
2967;DHT22;1493;51.496;7.210;2023-06-10T10:03:43;30.40;99.90
2967;DHT22;1493;51.496;7.210;2023-06-10T10:06:11;30.50;99.90
2967;DHT22;1493;51.496;7.210;2023-06-10T10:08:39;30.50;99.90
2967;DHT22;1493;51.496;7.210;2023-06-10T10:11:06;30.60;99.90
2967;DHT22;1493;51.496;7.210;2023-06-10T10:13:34;30.70;99.90
2967;DHT22;1493;51.496;7.210;2023-06-10T10:16:06;30.80;99.90
2967;DHT22;1493;51.496;7.210;2023-06-10T10:18:39;30.80;99.90
2967;DHT22;1493;51.496;7.210;2023-06-10T10:21:12;31.00;99.90
2967;DHT22;1493;51.496;7.210;2023-06-10T10:23:49;31.00;99.90
2967;DHT22;1493;51.496;7.210;2023-06-10T10:26:21;31.20;99.90
2967;DHT22;1493;51.496;7.210;2023-06-10T10:28:53;31.40;99.90
2967;DHT22;1493;51.496;7.210;2023-06-10T10:31:22;31.50;99.90
2967;DHT22;1493;51.496;7.210;2023-06-10T10:33:55;31.60;99.90
2967;DHT22;1493;51.496;7.210;2023-06-10T10:36:24;31.70;99.90
2967;DHT22;1493;51.496;7.210;2023-06-10T10:38:53;31.80;99.90
2967;DHT22;1493;51.496;7.210;2023-06-10T10:41:21;31.90;99.90
2967;DHT22;1493;51.496;7.210;2023-06-10T10:43:49;32.00;99.90
2967;DHT22;1493;51.496;7.210;2023-06-10T10:46:18;32.10;99.90
2967;DHT22;1493;51.496;7.210;2023-06-10T10:48:44;32.20;99.90
2967;DHT22;1493;51.496;7.210;2023-06-10T10:51:12;32.30;99.90
2967;DHT22;1493;51.496;7.210;2023-06-10T10:53:42;32.50;99.90
2967;DHT22;1493;51.496;7.210;2023-06-10T10:56:15;32.50;99.90
2967;DHT22;1493;51.496;7.210;2023-06-10T10:59:02;32.70;99.90
2967;DHT22;1493;51.496;7.210;2023-06-10T11:01:39;32.80;99.90
2967;DHT22;1493;51.496;7.210;2023-06-10T11:04:07;33.00;99.90
2967;DHT22;1493;51.496;7.210;2023-06-10T11:06:34;33.10;99.90
2967;DHT22;1493;51.496;7.210;2023-06-10T11:09:01;33.00;99.90
2967;DHT22;1493;51.496;7.210;2023-06-10T11:11:50;33.10;99.90
2967;DHT22;1493;51.496;7.210;2023-06-10T11:14:27;33.20;99.90
2967;DHT22;1493;51.496;7.210;2023-06-10T11:16:57;33.30;99.90
2967;DHT22;1493;51.496;7.210;2023-06-10T11:19:34;33.30;99.90
2967;DHT22;1493;51.496;7.210;2023-06-10T11:22:02;33.80;99.90
2967;DHT22;1493;51.496;7.210;2023-06-10T11:24:30;34.20;99.90
2967;DHT22;1493;51.496;7.210;2023-06-10T11:27:16;34.30;99.90
2967;DHT22;1493;51.496;7.210;2023-06-10T11:29:58;34.40;99.90
2967;DHT22;1493;51.496;7.210;2023-06-10T11:32:29;34.50;99.90
2967;DHT22;1493;51.496;7.210;2023-06-10T11:34:57;34.60;99.90
2967;DHT22;1493;51.496;7.210;2023-06-10T11:37:24;34.60;99.90
2967;DHT22;1493;51.496;7.210;2023-06-10T11:39:52;34.60;99.90
2967;DHT22;1493;51.496;7.210;2023-06-10T11:42:21;34.60;99.90
2967;DHT22;1493;51.496;7.210;2023-06-10T11:44:49;34.60;99.90
2967;DHT22;1493;51.496;7.210;2023-06-10T11:47:16;34.80;99.90
2967;DHT22;1493;51.496;7.210;2023-06-10T11:49:43;35.00;99.90
2967;DHT22;1493;51.496;7.210;2023-06-10T11:52:10;35.10;99.90
2967;DHT22;1493;51.496;7.210;2023-06-10T11:54:37;35.40;99.90
2967;DHT22;1493;51.496;7.210;2023-06-10T11:57:04;35.60;99.90
2967;DHT22;1493;51.496;7.210;2023-06-10T11:59:34;35.80;99.90
2967;DHT22;1493;51.496;7.210;2023-06-10T12:02:02;36.00;99.90
2967;DHT22;1493;51.496;7.210;2023-06-10T12:04:28;36.20;99.90
2967;DHT22;1493;51.496;7.210;2023-06-10T12:06:55;36.20;99.90
2967;DHT22;1493;51.496;7.210;2023-06-10T12:09:24;36.30;99.90
2967;DHT22;1493;51.496;7.210;2023-06-10T12:11:52;36.30;99.90
2967;DHT22;1493;51.496;7.210;2023-06-10T12:14:52;36.50;99.90
2967;DHT22;1493;51.496;7.210;2023-06-10T12:17:34;36.70;99.90
2967;DHT22;1493;51.496;7.210;2023-06-10T12:20:03;37.00;99.90
2967;DHT22;1493;51.496;7.210;2023-06-10T12:22:36;37.40;99.90
2967;DHT22;1493;51.496;7.210;2023-06-10T12:25:05;37.60;99.90
2967;DHT22;1493;51.496;7.210;2023-06-10T12:27:32;38.00;99.90
2967;DHT22;1493;51.496;7.210;2023-06-10T12:30:02;38.20;99.90
2967;DHT22;1493;51.496;7.210;2023-06-10T12:32:37;38.50;99.90
2967;DHT22;1493;51.496;7.210;2023-06-10T12:35:05;38.60;99.90
2967;DHT22;1493;51.496;7.210;2023-06-10T12:37:32;38.90;99.90
2967;DHT22;1493;51.496;7.210;2023-06-10T12:40:00;39.20;99.90
2967;DHT22;1493;51.496;7.210;2023-06-10T12:42:28;39.50;99.90
2967;DHT22;1493;51.496;7.210;2023-06-10T12:45:01;39.60;99.90
2967;DHT22;1493;51.496;7.210;2023-06-10T12:47:32;39.80;99.90
2967;DHT22;1493;51.496;7.210;2023-06-10T12:50:00;39.90;99.90
2967;DHT22;1493;51.496;7.210;2023-06-10T12:52:27;40.10;99.90
2967;DHT22;1493;51.496;7.210;2023-06-10T12:54:57;40.50;99.90
2967;DHT22;1493;51.496;7.210;2023-06-10T12:57:24;40.70;99.90
2967;DHT22;1493;51.496;7.210;2023-06-10T13:00:06;40.90;99.90
2967;DHT22;1493;51.496;7.210;2023-06-10T13:02:34;41.10;99.90
2967;DHT22;1493;51.496;7.210;2023-06-10T13:05:01;41.30;99.90
2967;DHT22;1493;51.496;7.210;2023-06-10T13:07:28;41.50;99.90
2967;DHT22;1493;51.496;7.210;2023-06-10T13:09:56;41.30;99.90
2967;DHT22;1493;51.496;7.210;2023-06-10T13:12:25;41.20;99.90
2967;DHT22;1493;51.496;7.210;2023-06-10T13:14:54;41.60;99.90
2967;DHT22;1493;51.496;7.210;2023-06-10T13:17:23;41.70;99.90
2967;DHT22;1493;51.496;7.210;2023-06-10T13:19:51;42.00;99.90
2967;DHT22;1493;51.496;7.210;2023-06-10T13:22:18;42.20;99.90
2967;DHT22;1493;51.496;7.210;2023-06-10T13:24:45;41.90;99.90
2967;DHT22;1493;51.496;7.210;2023-06-10T13:27:14;42.10;99.90
2967;DHT22;1493;51.496;7.210;2023-06-10T13:29:43;42.20;99.90
2967;DHT22;1493;51.496;7.210;2023-06-10T13:32:10;42.10;99.90
2967;DHT22;1493;51.496;7.210;2023-06-10T13:34:38;42.30;99.90
2967;DHT22;1493;51.496;7.210;2023-06-10T13:37:05;42.30;99.90
2967;DHT22;1493;51.496;7.210;2023-06-10T13:39:32;42.20;99.90
2967;DHT22;1493;51.496;7.210;2023-06-10T13:41:59;42.20;99.90
2967;DHT22;1493;51.496;7.210;2023-06-10T13:44:26;42.00;99.90
2967;DHT22;1493;51.496;7.210;2023-06-10T13:46:56;41.90;99.90
2967;DHT22;1493;51.496;7.210;2023-06-10T13:49:23;41.70;99.90
2967;DHT22;1493;51.496;7.210;2023-06-10T13:51:51;41.70;99.90
2967;DHT22;1493;51.496;7.210;2023-06-10T13:54:18;41.50;99.90
2967;DHT22;1493;51.496;7.210;2023-06-10T13:56:44;41.50;99.90
2967;DHT22;1493;51.496;7.210;2023-06-10T13:59:11;41.40;99.90
2967;DHT22;1493;51.496;7.210;2023-06-10T14:01:38;41.50;99.90
2967;DHT22;1493;51.496;7.210;2023-06-10T14:04:06;41.10;99.90
2967;DHT22;1493;51.496;7.210;2023-06-10T14:06:32;41.30;99.90
2967;DHT22;1493;51.496;7.210;2023-06-10T14:09:01;41.30;99.90
2967;DHT22;1493;51.496;7.210;2023-06-10T14:11:27;41.10;99.90
2967;DHT22;1493;51.496;7.210;2023-06-10T14:13:54;41.00;99.90
2967;DHT22;1493;51.496;7.210;2023-06-10T14:16:21;40.80;99.90
2967;DHT22;1493;51.496;7.210;2023-06-10T14:18:48;40.80;99.90
2967;DHT22;1493;51.496;7.210;2023-06-10T14:21:16;40.90;99.90
2967;DHT22;1493;51.496;7.210;2023-06-10T14:23:47;41.10;99.90
2967;DHT22;1493;51.496;7.210;2023-06-10T14:26:18;41.10;99.90
2967;DHT22;1493;51.496;7.210;2023-06-10T14:28:47;41.30;99.90
2967;DHT22;1493;51.496;7.210;2023-06-10T14:31:14;41.40;99.90
2967;DHT22;1493;51.496;7.210;2023-06-10T14:33:41;41.30;99.90
2967;DHT22;1493;51.496;7.210;2023-06-10T14:36:11;41.20;99.90
2967;DHT22;1493;51.496;7.210;2023-06-10T14:38:38;41.00;99.90
2967;DHT22;1493;51.496;7.210;2023-06-10T14:41:04;41.00;99.90
2967;DHT22;1493;51.496;7.210;2023-06-10T14:43:33;40.70;99.90
2967;DHT22;1493;51.496;7.210;2023-06-10T14:45:59;40.70;99.90
2967;DHT22;1493;51.496;7.210;2023-06-10T14:48:26;40.60;99.90
2967;DHT22;1493;51.496;7.210;2023-06-10T14:50:53;40.60;99.90
2967;DHT22;1493;51.496;7.210;2023-06-10T14:53:21;40.40;99.90
2967;DHT22;1493;51.496;7.210;2023-06-10T14:55:47;40.30;99.90
2967;DHT22;1493;51.496;7.210;2023-06-10T14:58:14;40.40;99.90
2967;DHT22;1493;51.496;7.210;2023-06-10T15:00:42;40.30;99.90
2967;DHT22;1493;51.496;7.210;2023-06-10T15:03:09;40.20;99.90
2967;DHT22;1493;51.496;7.210;2023-06-10T15:05:37;40.00;99.90
2967;DHT22;1493;51.496;7.210;2023-06-10T15:08:04;40.00;99.90
2967;DHT22;1493;51.496;7.210;2023-06-10T15:10:31;39.70;99.90
2967;DHT22;1493;51.496;7.210;2023-06-10T15:12:57;39.50;99.90
2967;DHT22;1493;51.496;7.210;2023-06-10T15:15:25;39.30;99.90
2967;DHT22;1493;51.496;7.210;2023-06-10T15:17:53;39.30;99.90
2967;DHT22;1493;51.496;7.210;2023-06-10T15:20:21;38.90;99.90
2967;DHT22;1493;51.496;7.210;2023-06-10T15:22:48;39.20;99.90
2967;DHT22;1493;51.496;7.210;2023-06-10T15:25:14;39.00;99.90
2967;DHT22;1493;51.496;7.210;2023-06-10T15:27:41;39.00;99.90
2967;DHT22;1493;51.496;7.210;2023-06-10T15:30:09;39.30;99.90
2967;DHT22;1493;51.496;7.210;2023-06-10T15:32:35;39.00;99.90
2967;DHT22;1493;51.496;7.210;2023-06-10T15:35:04;39.10;99.90
2967;DHT22;1493;51.496;7.210;2023-06-10T15:37:31;39.30;99.90
2967;DHT22;1493;51.496;7.210;2023-06-10T15:39:58;39.10;99.90
2967;DHT22;1493;51.496;7.210;2023-06-10T15:42:25;39.20;99.90
2967;DHT22;1493;51.496;7.210;2023-06-10T15:44:52;39.00;99.90
2967;DHT22;1493;51.496;7.210;2023-06-10T15:47:19;38.80;99.90
2967;DHT22;1493;51.496;7.210;2023-06-10T15:49:46;38.70;99.90
2967;DHT22;1493;51.496;7.210;2023-06-10T15:52:14;38.40;99.90
2967;DHT22;1493;51.496;7.210;2023-06-10T15:54:41;38.20;99.90
2967;DHT22;1493;51.496;7.210;2023-06-10T15:57:07;37.90;99.90
2967;DHT22;1493;51.496;7.210;2023-06-10T15:59:34;37.80;99.90
2967;DHT22;1493;51.496;7.210;2023-06-10T16:02:01;37.60;99.90
2967;DHT22;1493;51.496;7.210;2023-06-10T16:04:28;37.50;99.90
2967;DHT22;1493;51.496;7.210;2023-06-10T16:06:55;37.20;99.90
2967;DHT22;1493;51.496;7.210;2023-06-10T16:09:24;36.90;99.90
2967;DHT22;1493;51.496;7.210;2023-06-10T16:11:51;36.70;99.90
2967;DHT22;1493;51.496;7.210;2023-06-10T16:14:17;36.40;99.90
2967;DHT22;1493;51.496;7.210;2023-06-10T16:16:44;35.90;99.90